PGT995E LTFJ-LEBB
Flight info
| Callsign | PGT995E |
|---|---|
| Flight time | 3h 46m |
| Altitude | 34000 |
| Route | BARPE UG12 GOLDO DCT PINDO DCT ADDER DCT OVVER DCT TIRCA DCT GOKEL/N0449F330 DCT VEXUV/N0448F340 DCT ROXAN/N0451F350 DCT OKIDO DCT EPIKU/N0453F360 DCT GINOX DCT KIFMI DCT ELVOP DCT MUREN DCT CHELY DCT VERSO DCT SULID DCT SADEM DCT BCN DCT CAVES DCT VIBOK DCT REBUL DCT GEMAS DCT ALOSU DCT GRAUS DCT POSSY DCT MARIO/N0450F350 M601 CEGAM |
| Aircraft | B738/M-SDGIJ1LRWY/SB1 |
Departure
| Time | 2026-04-27 16:34 |
|---|---|
| Airport | Istanbul Sabiha Gökçen International Airport (LTFJ) |
Arrival
| Time | 2026-04-27 20:21 |
|---|---|
| Airport | Bilbao Airport (LEBB) |
| Time | Latitude | Longitude | Altitude | Speed | Heading |
|---|---|---|---|---|---|
| 2026-04-27 15:38 | 40.90611 | 29.31573 | 320 ft | 0 kts | 333° |
| 2026-04-27 16:21 | 40.90605 | 29.31578 | 320 ft | 2 kts | 333° |
| 2026-04-27 16:21 | 40.90565 | 29.31605 | 320 ft | 2 kts | 332° |
| 2026-04-27 16:22 | 40.90551 | 29.31613 | 320 ft | 2 kts | 333° |
| 2026-04-27 16:22 | 40.90530 | 29.31629 | 320 ft | 2 kts | 302° |
| 2026-04-27 16:22 | 40.90527 | 29.31648 | 320 ft | 2 kts | 259° |
| 2026-04-27 16:23 | 40.90529 | 29.31657 | 320 ft | 1 kts | 237° |
| 2026-04-27 16:23 | 40.90532 | 29.31663 | 320 ft | 0 kts | 242° |
| 2026-04-27 16:26 | 40.90527 | 29.31653 | 320 ft | 4 kts | 242° |
| 2026-04-27 16:26 | 40.90476 | 29.31518 | 320 ft | 9 kts | 244° |
| 2026-04-27 16:27 | 40.90397 | 29.31448 | 320 ft | 7 kts | 157° |
| 2026-04-27 16:27 | 40.90279 | 29.31485 | 319 ft | 8 kts | 219° |
| 2026-04-27 16:28 | 40.90206 | 29.31307 | 319 ft | 13 kts | 244° |
| 2026-04-27 16:28 | 40.90112 | 29.31050 | 320 ft | 17 kts | 244° |
| 2026-04-27 16:29 | 40.89954 | 29.30620 | 320 ft | 16 kts | 244° |
| 2026-04-27 16:30 | 40.89820 | 29.30254 | 319 ft | 21 kts | 244° |
| 2026-04-27 16:30 | 40.89701 | 29.29928 | 315 ft | 23 kts | 244° |
| 2026-04-27 16:31 | 40.89505 | 29.29399 | 307 ft | 18 kts | 244° |
| 2026-04-27 16:31 | 40.89408 | 29.29256 | 303 ft | 8 kts | 181° |
| 2026-04-27 16:32 | 40.89367 | 29.29273 | 303 ft | 0 kts | 154° |
| 2026-04-27 16:32 | 40.89345 | 29.29287 | 303 ft | 7 kts | 153° |
| 2026-04-27 16:33 | 40.89279 | 29.29353 | 304 ft | 3 kts | 78° |
| 2026-04-27 16:33 | 40.89287 | 29.29378 | 304 ft | 5 kts | 64° |
| 2026-04-27 16:33 | 40.89368 | 29.29591 | 310 ft | 56 kts | 64° |
| 2026-04-27 16:33 | 40.89627 | 29.30298 | 320 ft | 113 kts | 64° |
| 2026-04-27 16:34 | 40.90050 | 29.31454 | 328 ft | 161 kts | 63° |
| 2026-04-27 16:34 | 40.90517 | 29.32798 | 906 ft | 163 kts | 63° |
| 2026-04-27 16:34 | 40.90983 | 29.34140 | 1558 ft | 165 kts | 64° |
| 2026-04-27 16:34 | 40.91489 | 29.35502 | 2127 ft | 168 kts | 60° |
| 2026-04-27 16:35 | 40.92058 | 29.36921 | 2445 ft | 181 kts | 61° |
| 2026-04-27 16:35 | 40.92646 | 29.38479 | 2759 ft | 195 kts | 63° |
| 2026-04-27 16:35 | 40.92849 | 29.42274 | 3349 ft | 239 kts | 113° |
| 2026-04-27 16:36 | 40.91715 | 29.43979 | 3663 ft | 259 kts | 142° |
| 2026-04-27 16:36 | 40.90128 | 29.45113 | 4110 ft | 264 kts | 151° |
| 2026-04-27 16:36 | 40.88427 | 29.46119 | 4586 ft | 267 kts | 152° |
| 2026-04-27 16:36 | 40.86725 | 29.47108 | 5086 ft | 271 kts | 156° |
| 2026-04-27 16:37 | 40.84907 | 29.47752 | 5579 ft | 275 kts | 173° |
| 2026-04-27 16:37 | 40.83009 | 29.47490 | 6076 ft | 279 kts | 200° |
| 2026-04-27 16:37 | 40.81430 | 29.46036 | 6580 ft | 281 kts | 233° |
| 2026-04-27 16:37 | 40.80676 | 29.43685 | 7090 ft | 281 kts | 266° |
| 2026-04-27 16:38 | 40.80969 | 29.41179 | 7605 ft | 279 kts | 294° |
| 2026-04-27 16:38 | 40.81858 | 29.38926 | 8108 ft | 279 kts | 301° |
| 2026-04-27 16:38 | 40.82597 | 29.36559 | 8587 ft | 282 kts | 281° |
| 2026-04-27 16:38 | 40.82736 | 29.33984 | 9095 ft | 285 kts | 270° |
| 2026-04-27 16:39 | 40.82682 | 29.31354 | 9587 ft | 287 kts | 269° |
| 2026-04-27 16:39 | 40.82651 | 29.28746 | 10083 ft | 290 kts | 271° |
| 2026-04-27 16:39 | 40.82681 | 29.26049 | 10460 ft | 301 kts | 272° |
| 2026-04-27 16:39 | 40.82756 | 29.23203 | 10752 ft | 315 kts | 273° |
| 2026-04-27 16:40 | 40.82851 | 29.20251 | 11013 ft | 330 kts | 274° |
| 2026-04-27 16:40 | 40.82953 | 29.17169 | 11281 ft | 344 kts | 274° |
| 2026-04-27 16:40 | 40.83055 | 29.14014 | 11780 ft | 350 kts | 273° |
| 2026-04-27 16:40 | 40.83155 | 29.10783 | 12371 ft | 354 kts | 273° |
| 2026-04-27 16:41 | 40.83254 | 29.07534 | 12978 ft | 357 kts | 273° |
| 2026-04-27 16:41 | 40.83350 | 29.04265 | 13604 ft | 360 kts | 273° |
| 2026-04-27 16:41 | 40.83447 | 29.00963 | 14281 ft | 361 kts | 273° |
| 2026-04-27 16:41 | 40.83542 | 28.97649 | 14938 ft | 363 kts | 273° |
| 2026-04-27 16:42 | 40.83638 | 28.94352 | 15557 ft | 366 kts | 273° |
| 2026-04-27 16:42 | 40.83733 | 28.90990 | 16172 ft | 369 kts | 273° |
| 2026-04-27 16:42 | 40.83830 | 28.87591 | 16792 ft | 371 kts | 273° |
| 2026-04-27 16:42 | 40.83924 | 28.84182 | 17363 ft | 374 kts | 272° |
| 2026-04-27 16:43 | 40.84018 | 28.80793 | 17938 ft | 377 kts | 272° |
| 2026-04-27 16:43 | 40.84113 | 28.77290 | 18500 ft | 380 kts | 272° |
| 2026-04-27 16:43 | 40.84207 | 28.73805 | 19080 ft | 382 kts | 272° |
| 2026-04-27 16:43 | 40.84301 | 28.70298 | 19633 ft | 385 kts | 272° |
| 2026-04-27 16:44 | 40.84394 | 28.66772 | 20187 ft | 387 kts | 272° |
| 2026-04-27 16:44 | 40.84485 | 28.63261 | 20677 ft | 390 kts | 272° |
| 2026-04-27 16:44 | 40.84578 | 28.59681 | 21232 ft | 392 kts | 272° |
| 2026-04-27 16:44 | 40.84669 | 28.56071 | 21736 ft | 394 kts | 272° |
| 2026-04-27 16:45 | 40.84761 | 28.52428 | 22233 ft | 397 kts | 272° |
| 2026-04-27 16:45 | 40.84851 | 28.48815 | 22736 ft | 399 kts | 272° |
| 2026-04-27 16:45 | 40.84942 | 28.45119 | 23190 ft | 402 kts | 272° |
| 2026-04-27 16:45 | 40.85031 | 28.41445 | 23653 ft | 404 kts | 272° |
| 2026-04-27 16:46 | 40.85120 | 28.37748 | 24120 ft | 406 kts | 272° |
| 2026-04-27 16:46 | 40.85207 | 28.34041 | 24558 ft | 408 kts | 271° |
| 2026-04-27 16:46 | 40.85295 | 28.30286 | 24965 ft | 411 kts | 271° |
| 2026-04-27 16:46 | 40.85382 | 28.26490 | 25380 ft | 413 kts | 271° |
| 2026-04-27 16:47 | 40.85468 | 28.22701 | 25787 ft | 415 kts | 271° |
| 2026-04-27 16:47 | 40.85553 | 28.18912 | 26160 ft | 418 kts | 271° |
| 2026-04-27 16:47 | 40.85636 | 28.15081 | 26584 ft | 419 kts | 271° |
| 2026-04-27 16:47 | 40.85720 | 28.11219 | 26973 ft | 421 kts | 271° |
| 2026-04-27 16:48 | 40.85802 | 28.07367 | 27388 ft | 422 kts | 271° |
| 2026-04-27 16:48 | 40.85883 | 28.03491 | 27735 ft | 425 kts | 272° |
| 2026-04-27 16:48 | 40.85964 | 27.99579 | 28133 ft | 425 kts | 272° |
| 2026-04-27 16:49 | 40.86122 | 27.91777 | 28815 ft | 429 kts | 272° |
| 2026-04-27 16:49 | 40.86199 | 27.87859 | 29148 ft | 431 kts | 272° |
| 2026-04-27 16:49 | 40.86276 | 27.83850 | 29467 ft | 433 kts | 272° |
| 2026-04-27 16:49 | 40.86351 | 27.79913 | 29948 ft | 430 kts | 272° |
| 2026-04-27 16:50 | 40.86425 | 27.75966 | 30435 ft | 428 kts | 272° |
| 2026-04-27 16:50 | 40.86497 | 27.71997 | 30775 ft | 429 kts | 272° |
| 2026-04-27 16:50 | 40.86568 | 27.68071 | 31174 ft | 427 kts | 272° |
| 2026-04-27 16:50 | 40.86638 | 27.64128 | 31595 ft | 426 kts | 272° |
| 2026-04-27 16:51 | 40.86706 | 27.60183 | 31969 ft | 425 kts | 272° |
| 2026-04-27 16:51 | 40.86772 | 27.56258 | 32348 ft | 423 kts | 272° |
| 2026-04-27 16:51 | 40.86836 | 27.52355 | 32723 ft | 422 kts | 272° |
| 2026-04-27 16:51 | 40.86898 | 27.48487 | 33072 ft | 421 kts | 272° |
| 2026-04-27 16:52 | 40.86959 | 27.44610 | 33380 ft | 420 kts | 272° |
| 2026-04-27 16:52 | 40.87019 | 27.40755 | 33678 ft | 420 kts | 272° |
| 2026-04-27 16:52 | 40.87078 | 27.36910 | 33996 ft | 418 kts | 272° |
| 2026-04-27 16:52 | 40.87135 | 27.33086 | 34195 ft | 419 kts | 271° |
| 2026-04-27 16:53 | 40.87247 | 27.25364 | 34195 ft | 418 kts | 271° |
| 2026-04-27 16:53 | 40.87352 | 27.17704 | 34197 ft | 421 kts | 271° |
| 2026-04-27 16:54 | 40.87455 | 27.09879 | 34200 ft | 430 kts | 271° |
| 2026-04-27 16:54 | 40.87553 | 27.01911 | 34199 ft | 436 kts | 271° |
| 2026-04-27 16:55 | 40.87646 | 26.93911 | 34198 ft | 433 kts | 271° |
| 2026-04-27 16:55 | 40.87734 | 26.85934 | 34200 ft | 434 kts | 271° |
| 2026-04-27 16:56 | 40.87815 | 26.77981 | 34195 ft | 434 kts | 271° |
| 2026-04-27 16:56 | 40.87892 | 26.70012 | 34198 ft | 434 kts | 271° |
| 2026-04-27 16:57 | 40.87963 | 26.62056 | 34198 ft | 435 kts | 271° |
| 2026-04-27 16:57 | 40.88029 | 26.54125 | 34199 ft | 435 kts | 271° |
| 2026-04-27 16:58 | 40.88089 | 26.46086 | 34207 ft | 436 kts | 271° |
| 2026-04-27 16:58 | 40.88135 | 26.38072 | 34204 ft | 436 kts | 271° |
| 2026-04-27 16:59 | 40.87857 | 26.30082 | 34199 ft | 437 kts | 266° |
| 2026-04-27 16:59 | 40.87376 | 26.22062 | 34197 ft | 436 kts | 266° |
| 2026-04-27 17:00 | 40.86667 | 26.10165 | 34200 ft | 436 kts | 266° |
| 2026-04-27 17:01 | 40.86222 | 26.02169 | 34199 ft | 437 kts | 267° |
| 2026-04-27 17:01 | 40.85784 | 25.94126 | 34192 ft | 437 kts | 267° |
| 2026-04-27 17:02 | 40.85350 | 25.86162 | 34197 ft | 438 kts | 267° |
| 2026-04-27 17:02 | 40.84908 | 25.78111 | 34199 ft | 437 kts | 267° |
| 2026-04-27 17:03 | 40.84466 | 25.70147 | 34198 ft | 437 kts | 267° |
| 2026-04-27 17:03 | 40.84017 | 25.62142 | 34192 ft | 436 kts | 267° |
| 2026-04-27 17:04 | 40.83563 | 25.54167 | 34188 ft | 435 kts | 267° |
| 2026-04-27 17:04 | 40.83105 | 25.46205 | 34193 ft | 435 kts | 267° |
| 2026-04-27 17:05 | 40.82641 | 25.38238 | 34180 ft | 436 kts | 267° |
| 2026-04-27 17:05 | 40.82176 | 25.30354 | 34183 ft | 436 kts | 267° |
| 2026-04-27 17:06 | 40.81693 | 25.22257 | 34179 ft | 436 kts | 267° |
| 2026-04-27 17:06 | 40.81212 | 25.14283 | 34173 ft | 437 kts | 267° |
| 2026-04-27 17:07 | 40.80725 | 25.06306 | 34166 ft | 436 kts | 267° |
| 2026-04-27 17:07 | 40.80232 | 24.98321 | 34164 ft | 435 kts | 267° |
| 2026-04-27 17:08 | 40.79739 | 24.90437 | 34166 ft | 436 kts | 267° |
| 2026-04-27 17:08 | 40.79236 | 24.82479 | 34166 ft | 435 kts | 267° |
| 2026-04-27 17:09 | 40.78725 | 24.74477 | 34173 ft | 436 kts | 267° |
| 2026-04-27 17:09 | 40.78212 | 24.66517 | 34166 ft | 435 kts | 267° |
| 2026-04-27 17:10 | 40.77694 | 24.58580 | 34172 ft | 436 kts | 267° |
| 2026-04-27 17:10 | 40.77169 | 24.50619 | 34176 ft | 436 kts | 267° |
| 2026-04-27 17:11 | 40.76640 | 24.42682 | 34176 ft | 436 kts | 267° |
| 2026-04-27 17:11 | 40.75833 | 24.30732 | 34173 ft | 435 kts | 266° |
| 2026-04-27 17:12 | 40.75019 | 24.18852 | 34169 ft | 434 kts | 266° |
| 2026-04-27 17:13 | 40.74469 | 24.10943 | 34167 ft | 434 kts | 266° |
| 2026-04-27 17:13 | 40.73917 | 24.03066 | 34171 ft | 435 kts | 266° |
| 2026-04-27 17:14 | 40.73356 | 23.95136 | 34170 ft | 436 kts | 266° |
| 2026-04-27 17:14 | 40.72787 | 23.87173 | 34162 ft | 435 kts | 266° |
| 2026-04-27 17:15 | 40.72216 | 23.79283 | 34172 ft | 435 kts | 266° |
| 2026-04-27 17:15 | 40.71637 | 23.71336 | 34172 ft | 435 kts | 266° |
| 2026-04-27 17:16 | 40.71057 | 23.63464 | 34166 ft | 435 kts | 266° |
| 2026-04-27 17:16 | 40.70467 | 23.55508 | 34172 ft | 435 kts | 266° |
| 2026-04-27 17:17 | 40.69874 | 23.47607 | 34171 ft | 435 kts | 266° |
| 2026-04-27 17:17 | 40.69277 | 23.39722 | 34172 ft | 434 kts | 266° |
| 2026-04-27 17:18 | 40.68370 | 23.27871 | 34170 ft | 435 kts | 266° |
| 2026-04-27 17:18 | 40.67756 | 23.19943 | 34168 ft | 435 kts | 266° |
| 2026-04-27 17:19 | 40.67139 | 23.12045 | 34172 ft | 435 kts | 266° |
| 2026-04-27 17:19 | 40.66517 | 23.04156 | 34171 ft | 434 kts | 266° |
| 2026-04-27 17:20 | 40.65889 | 22.96269 | 34171 ft | 435 kts | 266° |
| 2026-04-27 17:20 | 40.65253 | 22.88329 | 34170 ft | 435 kts | 266° |
| 2026-04-27 17:21 | 40.64614 | 22.80439 | 34169 ft | 434 kts | 266° |
| 2026-04-27 17:21 | 40.63972 | 22.72563 | 34171 ft | 434 kts | 266° |
| 2026-04-27 17:22 | 40.63319 | 22.64627 | 34167 ft | 435 kts | 266° |
| 2026-04-27 17:22 | 40.62665 | 22.56746 | 34169 ft | 434 kts | 266° |
| 2026-04-27 17:23 | 40.62003 | 22.48833 | 34171 ft | 434 kts | 266° |
| 2026-04-27 17:23 | 40.61335 | 22.40931 | 34172 ft | 434 kts | 266° |
| 2026-04-27 17:24 | 40.60664 | 22.33047 | 34166 ft | 434 kts | 265° |
| 2026-04-27 17:24 | 40.59989 | 22.25176 | 34172 ft | 434 kts | 265° |
| 2026-04-27 17:25 | 40.59308 | 22.17308 | 34169 ft | 433 kts | 265° |
| 2026-04-27 17:25 | 40.58619 | 22.09403 | 34167 ft | 434 kts | 265° |
| 2026-04-27 17:26 | 40.57928 | 22.01539 | 34174 ft | 435 kts | 265° |
| 2026-04-27 17:26 | 40.57230 | 21.93668 | 34171 ft | 434 kts | 265° |
| 2026-04-27 17:27 | 40.56522 | 21.85738 | 34162 ft | 433 kts | 265° |
| 2026-04-27 17:27 | 40.55813 | 21.77858 | 34163 ft | 434 kts | 265° |
| 2026-04-27 17:28 | 40.55101 | 21.70006 | 34160 ft | 433 kts | 265° |
| 2026-04-27 17:29 | 40.54022 | 21.58222 | 34158 ft | 434 kts | 265° |
| 2026-04-27 17:29 | 40.53294 | 21.50334 | 34157 ft | 433 kts | 265° |
| 2026-04-27 17:30 | 40.52564 | 21.42507 | 34162 ft | 434 kts | 265° |
| 2026-04-27 17:30 | 40.51459 | 21.30763 | 34158 ft | 433 kts | 264° |
| 2026-04-27 17:31 | 40.50715 | 21.22912 | 34165 ft | 433 kts | 264° |
| 2026-04-27 17:31 | 40.49966 | 21.15075 | 34167 ft | 434 kts | 264° |
| 2026-04-27 17:32 | 40.48830 | 21.03303 | 34167 ft | 433 kts | 264° |
| 2026-04-27 17:33 | 40.48286 | 20.95403 | 34163 ft | 432 kts | 270° |
| 2026-04-27 17:33 | 40.48509 | 20.87552 | 34166 ft | 431 kts | 275° |
| 2026-04-27 17:34 | 40.49045 | 20.79774 | 34168 ft | 431 kts | 276° |
| 2026-04-27 17:34 | 40.49629 | 20.71938 | 34162 ft | 431 kts | 276° |
| 2026-04-27 17:35 | 40.50190 | 20.64089 | 34162 ft | 432 kts | 276° |
| 2026-04-27 17:35 | 40.50724 | 20.56277 | 34164 ft | 432 kts | 276° |
| 2026-04-27 17:36 | 40.51241 | 20.48439 | 34167 ft | 431 kts | 276° |
| 2026-04-27 17:36 | 40.51749 | 20.40591 | 34163 ft | 431 kts | 276° |
| 2026-04-27 17:37 | 40.52256 | 20.32650 | 34155 ft | 431 kts | 275° |
| 2026-04-27 17:37 | 40.52748 | 20.24802 | 34129 ft | 431 kts | 275° |
| 2026-04-27 17:38 | 40.53231 | 20.16919 | 34122 ft | 432 kts | 275° |
| 2026-04-27 17:38 | 40.53708 | 20.09048 | 34112 ft | 432 kts | 275° |
| 2026-04-27 17:39 | 40.54180 | 20.01153 | 34112 ft | 434 kts | 275° |
| 2026-04-27 17:39 | 40.54655 | 19.93226 | 34108 ft | 433 kts | 275° |
| 2026-04-27 17:40 | 40.55129 | 19.85357 | 34081 ft | 432 kts | 275° |
| 2026-04-27 17:40 | 40.55595 | 19.77456 | 34075 ft | 433 kts | 275° |
| 2026-04-27 17:41 | 40.56051 | 19.69568 | 34073 ft | 432 kts | 275° |
| 2026-04-27 17:41 | 40.56501 | 19.61677 | 34071 ft | 432 kts | 275° |
| 2026-04-27 17:42 | 40.56947 | 19.53777 | 34064 ft | 432 kts | 275° |
| 2026-04-27 17:42 | 40.57386 | 19.45907 | 34061 ft | 432 kts | 276° |
| 2026-04-27 17:43 | 40.57821 | 19.37995 | 34056 ft | 432 kts | 276° |
| 2026-04-27 17:43 | 40.58252 | 19.30068 | 34055 ft | 433 kts | 275° |
| 2026-04-27 17:44 | 40.58672 | 19.22228 | 34056 ft | 432 kts | 275° |
| 2026-04-27 17:44 | 40.59090 | 19.14344 | 34050 ft | 434 kts | 275° |
| 2026-04-27 17:45 | 40.59506 | 19.06409 | 34055 ft | 433 kts | 275° |
| 2026-04-27 17:45 | 40.59914 | 18.98467 | 34051 ft | 433 kts | 275° |
| 2026-04-27 17:45 | 40.60097 | 18.94538 | 33869 ft | 428 kts | 275° |
| 2026-04-27 17:46 | 40.60263 | 18.90693 | 33596 ft | 418 kts | 275° |
| 2026-04-27 17:46 | 40.60417 | 18.86951 | 33327 ft | 409 kts | 274° |
| 2026-04-27 17:46 | 40.60569 | 18.83200 | 33071 ft | 407 kts | 275° |
| 2026-04-27 17:47 | 40.60876 | 18.75723 | 33051 ft | 416 kts | 275° |
| 2026-04-27 17:47 | 40.61190 | 18.68026 | 33044 ft | 427 kts | 275° |
| 2026-04-27 17:48 | 40.61509 | 18.60140 | 33051 ft | 437 kts | 274° |
| 2026-04-27 17:48 | 40.61824 | 18.52175 | 33046 ft | 436 kts | 275° |
| 2026-04-27 17:49 | 40.62134 | 18.44218 | 33051 ft | 437 kts | 275° |
| 2026-04-27 17:49 | 40.62438 | 18.36272 | 33052 ft | 437 kts | 275° |
| 2026-04-27 17:50 | 40.62738 | 18.28286 | 33050 ft | 436 kts | 274° |
| 2026-04-27 17:50 | 40.63178 | 18.16328 | 33056 ft | 437 kts | 274° |
| 2026-04-27 17:51 | 40.63467 | 18.08298 | 33057 ft | 436 kts | 274° |
| 2026-04-27 17:51 | 40.63746 | 18.00354 | 33057 ft | 436 kts | 274° |
| 2026-04-27 17:52 | 40.64023 | 17.92336 | 33056 ft | 437 kts | 274° |
| 2026-04-27 17:52 | 40.64295 | 17.84341 | 33056 ft | 437 kts | 274° |
| 2026-04-27 17:53 | 40.64560 | 17.76353 | 33057 ft | 437 kts | 274° |
| 2026-04-27 17:53 | 40.64819 | 17.68379 | 33058 ft | 437 kts | 274° |
| 2026-04-27 17:54 | 40.65072 | 17.60420 | 33059 ft | 436 kts | 274° |
| 2026-04-27 17:54 | 40.65319 | 17.52473 | 33063 ft | 437 kts | 274° |
| 2026-04-27 17:55 | 40.65562 | 17.44498 | 33066 ft | 437 kts | 274° |
| 2026-04-27 17:55 | 40.65801 | 17.36476 | 33068 ft | 437 kts | 274° |
| 2026-04-27 17:56 | 40.66032 | 17.28515 | 33069 ft | 437 kts | 274° |
| 2026-04-27 17:56 | 40.66258 | 17.20528 | 33075 ft | 437 kts | 274° |
| 2026-04-27 17:57 | 40.66479 | 17.12563 | 33076 ft | 437 kts | 274° |
| 2026-04-27 17:57 | 40.66695 | 17.04575 | 33078 ft | 437 kts | 274° |
| 2026-04-27 17:58 | 40.66905 | 16.96567 | 33081 ft | 438 kts | 274° |
| 2026-04-27 17:58 | 40.67109 | 16.88587 | 33081 ft | 437 kts | 274° |
| 2026-04-27 17:59 | 40.67308 | 16.80614 | 33082 ft | 438 kts | 274° |
| 2026-04-27 17:59 | 40.67501 | 16.72629 | 33080 ft | 437 kts | 274° |
| 2026-04-27 18:00 | 40.67689 | 16.64646 | 33081 ft | 438 kts | 274° |
| 2026-04-27 18:00 | 40.67873 | 16.56627 | 33079 ft | 438 kts | 274° |
| 2026-04-27 18:01 | 40.68049 | 16.48665 | 33077 ft | 439 kts | 274° |
| 2026-04-27 18:01 | 40.68222 | 16.40616 | 33074 ft | 439 kts | 274° |
| 2026-04-27 18:02 | 40.68388 | 16.32614 | 33081 ft | 439 kts | 273° |
| 2026-04-27 18:02 | 40.68550 | 16.24564 | 33096 ft | 439 kts | 273° |
| 2026-04-27 18:03 | 40.68705 | 16.16573 | 33107 ft | 438 kts | 273° |
| 2026-04-27 18:03 | 40.68854 | 16.08605 | 33109 ft | 439 kts | 273° |
| 2026-04-27 18:04 | 40.68998 | 16.00566 | 33120 ft | 439 kts | 273° |
| 2026-04-27 18:04 | 40.69136 | 15.92528 | 33130 ft | 439 kts | 273° |
| 2026-04-27 18:05 | 40.69271 | 15.84468 | 33137 ft | 440 kts | 273° |
| 2026-04-27 18:05 | 40.69400 | 15.76450 | 33144 ft | 439 kts | 273° |
| 2026-04-27 18:06 | 40.69523 | 15.68441 | 33137 ft | 439 kts | 273° |
| 2026-04-27 18:06 | 40.69640 | 15.60452 | 33125 ft | 439 kts | 273° |
| 2026-04-27 18:07 | 40.69752 | 15.52365 | 33107 ft | 440 kts | 273° |
| 2026-04-27 18:07 | 40.69859 | 15.44327 | 33108 ft | 442 kts | 273° |
| 2026-04-27 18:08 | 40.69959 | 15.36247 | 33102 ft | 441 kts | 273° |
| 2026-04-27 18:08 | 40.70054 | 15.28203 | 33097 ft | 442 kts | 272° |
| 2026-04-27 18:09 | 40.70142 | 15.20113 | 33096 ft | 442 kts | 272° |
| 2026-04-27 18:09 | 40.70225 | 15.12010 | 33095 ft | 442 kts | 272° |
| 2026-04-27 18:10 | 40.70303 | 15.03946 | 33099 ft | 443 kts | 272° |
| 2026-04-27 18:10 | 40.70376 | 14.95856 | 33097 ft | 441 kts | 272° |
| 2026-04-27 18:11 | 40.70443 | 14.87807 | 33097 ft | 442 kts | 272° |
| 2026-04-27 18:11 | 40.70504 | 14.79679 | 33093 ft | 444 kts | 272° |
| 2026-04-27 18:12 | 40.70559 | 14.71547 | 33091 ft | 444 kts | 272° |
| 2026-04-27 18:12 | 40.70609 | 14.63410 | 33089 ft | 444 kts | 272° |
| 2026-04-27 18:13 | 40.70653 | 14.55272 | 33091 ft | 444 kts | 272° |
| 2026-04-27 18:13 | 40.70692 | 14.47209 | 33085 ft | 443 kts | 272° |
| 2026-04-27 18:14 | 40.70726 | 14.39045 | 33090 ft | 445 kts | 272° |
| 2026-04-27 18:14 | 40.70754 | 14.30872 | 33090 ft | 445 kts | 272° |
| 2026-04-27 18:15 | 40.70775 | 14.22771 | 33092 ft | 446 kts | 271° |
| 2026-04-27 18:15 | 40.70789 | 14.14586 | 33091 ft | 447 kts | 272° |
| 2026-04-27 18:16 | 40.70800 | 14.06373 | 33090 ft | 447 kts | 272° |
| 2026-04-27 18:16 | 40.70804 | 13.98213 | 33089 ft | 446 kts | 272° |
| 2026-04-27 18:17 | 40.70803 | 13.90050 | 33091 ft | 446 kts | 272° |
| 2026-04-27 18:17 | 40.70795 | 13.81888 | 33091 ft | 447 kts | 271° |
| 2026-04-27 18:18 | 40.70782 | 13.73705 | 33089 ft | 447 kts | 271° |
| 2026-04-27 18:18 | 40.70763 | 13.65481 | 33088 ft | 447 kts | 272° |
| 2026-04-27 18:19 | 40.70739 | 13.57326 | 33089 ft | 448 kts | 271° |
| 2026-04-27 18:19 | 40.70709 | 13.49124 | 33092 ft | 448 kts | 271° |
| 2026-04-27 18:20 | 40.70673 | 13.40944 | 33091 ft | 449 kts | 271° |
| 2026-04-27 18:20 | 40.70633 | 13.32701 | 33095 ft | 449 kts | 271° |
| 2026-04-27 18:21 | 40.70878 | 13.24509 | 33097 ft | 448 kts | 275° |
| 2026-04-27 18:21 | 40.71418 | 13.16364 | 33098 ft | 448 kts | 277° |
| 2026-04-27 18:22 | 40.72013 | 13.08202 | 33095 ft | 447 kts | 277° |
| 2026-04-27 18:22 | 40.72595 | 13.00021 | 33095 ft | 448 kts | 276° |
| 2026-04-27 18:23 | 40.73150 | 12.91882 | 33095 ft | 448 kts | 276° |
| 2026-04-27 18:23 | 40.73689 | 12.83696 | 33095 ft | 449 kts | 276° |
| 2026-04-27 18:24 | 40.74217 | 12.75504 | 33094 ft | 449 kts | 276° |
| 2026-04-27 18:24 | 40.74737 | 12.67301 | 33094 ft | 449 kts | 276° |
| 2026-04-27 18:25 | 40.75251 | 12.59099 | 33093 ft | 449 kts | 276° |
| 2026-04-27 18:25 | 40.75757 | 12.50919 | 33091 ft | 449 kts | 276° |
| 2026-04-27 18:26 | 40.76261 | 12.42689 | 33091 ft | 450 kts | 276° |
| 2026-04-27 18:26 | 40.76756 | 12.34489 | 33092 ft | 449 kts | 275° |
| 2026-04-27 18:27 | 40.77244 | 12.26324 | 33093 ft | 449 kts | 275° |
| 2026-04-27 18:27 | 40.77731 | 12.18078 | 33092 ft | 450 kts | 275° |
| 2026-04-27 18:28 | 40.78209 | 12.09878 | 33091 ft | 451 kts | 275° |
| 2026-04-27 18:28 | 40.78684 | 12.01629 | 33091 ft | 452 kts | 275° |
| 2026-04-27 18:29 | 40.79149 | 11.93447 | 33088 ft | 451 kts | 275° |
| 2026-04-27 18:29 | 40.79610 | 11.85226 | 33090 ft | 451 kts | 275° |
| 2026-04-27 18:30 | 40.79842 | 11.81068 | 33383 ft | 449 kts | 275° |
| 2026-04-27 18:30 | 40.80064 | 11.77029 | 33962 ft | 442 kts | 275° |
| 2026-04-27 18:30 | 40.80284 | 11.73031 | 34084 ft | 437 kts | 275° |
| 2026-04-27 18:30 | 40.80500 | 11.69054 | 34093 ft | 430 kts | 275° |
| 2026-04-27 18:31 | 40.80921 | 11.61260 | 34088 ft | 429 kts | 275° |
| 2026-04-27 18:31 | 40.81340 | 11.53411 | 34087 ft | 431 kts | 275° |
| 2026-04-27 18:32 | 40.81755 | 11.45564 | 34089 ft | 430 kts | 275° |
| 2026-04-27 18:32 | 40.82164 | 11.37689 | 34090 ft | 430 kts | 275° |
| 2026-04-27 18:33 | 40.82570 | 11.29783 | 34088 ft | 430 kts | 274° |
| 2026-04-27 18:33 | 40.82967 | 11.21959 | 34088 ft | 430 kts | 274° |
| 2026-04-27 18:34 | 40.83168 | 11.14052 | 34089 ft | 431 kts | 271° |
| 2026-04-27 18:34 | 40.83174 | 11.06186 | 34087 ft | 431 kts | 270° |
| 2026-04-27 18:35 | 40.83159 | 10.98254 | 34089 ft | 432 kts | 270° |
| 2026-04-27 18:35 | 40.83161 | 10.90381 | 34091 ft | 432 kts | 271° |
| 2026-04-27 18:36 | 40.83175 | 10.82484 | 34091 ft | 432 kts | 271° |
| 2026-04-27 18:36 | 40.83193 | 10.74582 | 34091 ft | 431 kts | 271° |
| 2026-04-27 18:37 | 40.83209 | 10.66693 | 34090 ft | 431 kts | 271° |
| 2026-04-27 18:37 | 40.83221 | 10.58811 | 34089 ft | 432 kts | 271° |
| 2026-04-27 18:38 | 40.83228 | 10.50897 | 34091 ft | 432 kts | 271° |
| 2026-04-27 18:38 | 40.83228 | 10.42985 | 34091 ft | 431 kts | 271° |
| 2026-04-27 18:39 | 40.83224 | 10.35042 | 34089 ft | 431 kts | 271° |
| 2026-04-27 18:39 | 40.83215 | 10.27150 | 34090 ft | 432 kts | 270° |
| 2026-04-27 18:40 | 40.83200 | 10.19246 | 34092 ft | 431 kts | 270° |
| 2026-04-27 18:40 | 40.83179 | 10.11289 | 34093 ft | 432 kts | 270° |
| 2026-04-27 18:41 | 40.83154 | 10.03373 | 34089 ft | 431 kts | 270° |
| 2026-04-27 18:41 | 40.83122 | 9.95477 | 34090 ft | 432 kts | 270° |
| 2026-04-27 18:42 | 40.83091 | 9.88844 | 34081 ft | 433 kts | 270° |
| 2026-04-27 18:42 | 40.83061 | 9.79612 | 34084 ft | 432 kts | 271° |
| 2026-04-27 18:43 | 40.83207 | 9.71722 | 34085 ft | 432 kts | 272° |
| 2026-04-27 18:43 | 40.83416 | 9.63819 | 34087 ft | 433 kts | 272° |
| 2026-04-27 18:44 | 40.83614 | 9.55850 | 34087 ft | 433 kts | 272° |
| 2026-04-27 18:44 | 40.83789 | 9.47975 | 34081 ft | 433 kts | 272° |
| 2026-04-27 18:45 | 40.83952 | 9.40029 | 34087 ft | 433 kts | 272° |
| 2026-04-27 18:45 | 40.84107 | 9.32055 | 34088 ft | 434 kts | 272° |
| 2026-04-27 18:46 | 40.84252 | 9.24143 | 34092 ft | 434 kts | 272° |
| 2026-04-27 18:46 | 40.84391 | 9.16159 | 34088 ft | 434 kts | 271° |
| 2026-04-27 18:47 | 40.84524 | 9.08210 | 34086 ft | 435 kts | 271° |
| 2026-04-27 18:47 | 40.84653 | 9.00259 | 34096 ft | 434 kts | 272° |
| 2026-04-27 18:48 | 40.84713 | 8.96357 | 34076 ft | 418 kts | 272° |
| 2026-04-27 18:48 | 40.84770 | 8.92597 | 34104 ft | 404 kts | 272° |
| 2026-04-27 18:48 | 40.84880 | 8.85178 | 34090 ft | 409 kts | 272° |
| 2026-04-27 18:49 | 40.84990 | 8.77598 | 34096 ft | 412 kts | 272° |
| 2026-04-27 18:49 | 40.85092 | 8.70075 | 34094 ft | 410 kts | 272° |
| 2026-04-27 18:50 | 40.85190 | 8.62572 | 34083 ft | 411 kts | 272° |
| 2026-04-27 18:50 | 40.85283 | 8.54991 | 34090 ft | 411 kts | 272° |
| 2026-04-27 18:51 | 40.85370 | 8.47493 | 34077 ft | 411 kts | 272° |
| 2026-04-27 18:51 | 40.85453 | 8.39945 | 34089 ft | 412 kts | 272° |
| 2026-04-27 18:52 | 40.85532 | 8.32364 | 34092 ft | 412 kts | 272° |
| 2026-04-27 18:53 | 40.85639 | 8.21105 | 34081 ft | 411 kts | 272° |
| 2026-04-27 18:53 | 40.85705 | 8.13541 | 34089 ft | 412 kts | 272° |
| 2026-04-27 18:54 | 40.85851 | 8.06035 | 34083 ft | 411 kts | 275° |
| 2026-04-27 18:54 | 40.86223 | 7.98449 | 34094 ft | 420 kts | 276° |
| 2026-04-27 18:55 | 40.86769 | 7.90680 | 34092 ft | 432 kts | 278° |
| 2026-04-27 18:55 | 40.87374 | 7.82713 | 34088 ft | 436 kts | 278° |
| 2026-04-27 18:56 | 40.87947 | 7.74829 | 34088 ft | 435 kts | 277° |
| 2026-04-27 18:56 | 40.88500 | 7.66888 | 34092 ft | 434 kts | 277° |
| 2026-04-27 18:57 | 40.89033 | 7.58976 | 34093 ft | 433 kts | 277° |
| 2026-04-27 18:57 | 40.89558 | 7.51067 | 34090 ft | 433 kts | 277° |
| 2026-04-27 18:58 | 40.90073 | 7.43190 | 34093 ft | 434 kts | 277° |
| 2026-04-27 18:58 | 40.90585 | 7.35270 | 34090 ft | 433 kts | 277° |
| 2026-04-27 18:59 | 40.91095 | 7.27299 | 34096 ft | 435 kts | 277° |
| 2026-04-27 18:59 | 40.91598 | 7.19342 | 34095 ft | 433 kts | 277° |
| 2026-04-27 19:00 | 40.92094 | 7.11396 | 34094 ft | 433 kts | 277° |
| 2026-04-27 19:00 | 40.92586 | 7.03449 | 34208 ft | 438 kts | 277° |
| 2026-04-27 19:00 | 40.92834 | 6.99425 | 34437 ft | 439 kts | 277° |
| 2026-04-27 19:01 | 40.93078 | 6.95430 | 34757 ft | 437 kts | 277° |
| 2026-04-27 19:01 | 40.93318 | 6.91469 | 35111 ft | 434 kts | 277° |
| 2026-04-27 19:01 | 40.93559 | 6.87475 | 35376 ft | 434 kts | 277° |
| 2026-04-27 19:01 | 40.93796 | 6.83501 | 35653 ft | 433 kts | 277° |
| 2026-04-27 19:02 | 40.94031 | 6.79547 | 35921 ft | 432 kts | 277° |
| 2026-04-27 19:02 | 40.94262 | 6.75647 | 36093 ft | 433 kts | 277° |
| 2026-04-27 19:02 | 40.94499 | 6.71633 | 36094 ft | 435 kts | 277° |
| 2026-04-27 19:03 | 40.94961 | 6.63719 | 36094 ft | 432 kts | 277° |
| 2026-04-27 19:03 | 40.95419 | 6.55797 | 36094 ft | 432 kts | 277° |
| 2026-04-27 19:04 | 40.95868 | 6.47921 | 36093 ft | 431 kts | 277° |
| 2026-04-27 19:04 | 40.96312 | 6.40035 | 36093 ft | 432 kts | 277° |
| 2026-04-27 19:05 | 40.96755 | 6.32100 | 36093 ft | 433 kts | 276° |
| 2026-04-27 19:05 | 40.97192 | 6.24164 | 36100 ft | 432 kts | 276° |
| 2026-04-27 19:06 | 40.97619 | 6.16278 | 36093 ft | 432 kts | 276° |
| 2026-04-27 19:06 | 40.98042 | 6.08371 | 36095 ft | 431 kts | 276° |
| 2026-04-27 19:07 | 40.98461 | 6.00431 | 36073 ft | 430 kts | 276° |
| 2026-04-27 19:07 | 40.98872 | 5.92577 | 36082 ft | 430 kts | 276° |
| 2026-04-27 19:08 | 40.99280 | 5.84670 | 36086 ft | 431 kts | 276° |
| 2026-04-27 19:08 | 40.99681 | 5.76753 | 36082 ft | 431 kts | 276° |
| 2026-04-27 19:09 | 41.00075 | 5.68885 | 36075 ft | 432 kts | 276° |
| 2026-04-27 19:09 | 41.00469 | 5.60917 | 36080 ft | 431 kts | 276° |
| 2026-04-27 19:10 | 41.00853 | 5.53033 | 36084 ft | 432 kts | 276° |
| 2026-04-27 19:10 | 41.01236 | 5.45099 | 36079 ft | 431 kts | 276° |
| 2026-04-27 19:11 | 41.01609 | 5.37247 | 36078 ft | 431 kts | 276° |
| 2026-04-27 19:11 | 41.02014 | 5.29345 | 36075 ft | 432 kts | 276° |
| 2026-04-27 19:12 | 41.02432 | 5.21425 | 36067 ft | 431 kts | 276° |
| 2026-04-27 19:12 | 41.02840 | 5.13570 | 36074 ft | 431 kts | 275° |
| 2026-04-27 19:13 | 41.03242 | 5.05693 | 36071 ft | 430 kts | 275° |
| 2026-04-27 19:13 | 41.03637 | 4.97798 | 36070 ft | 431 kts | 275° |
| 2026-04-27 19:14 | 41.04025 | 4.89886 | 36077 ft | 431 kts | 275° |
| 2026-04-27 19:14 | 41.04410 | 4.81947 | 36074 ft | 431 kts | 275° |
| 2026-04-27 19:15 | 41.04847 | 4.74088 | 36071 ft | 429 kts | 278° |
| 2026-04-27 19:15 | 41.05634 | 4.66223 | 36071 ft | 430 kts | 280° |
| 2026-04-27 19:16 | 41.06539 | 4.58412 | 36071 ft | 430 kts | 280° |
| 2026-04-27 19:16 | 41.07440 | 4.50621 | 36069 ft | 430 kts | 280° |
| 2026-04-27 19:17 | 41.08312 | 4.42812 | 36072 ft | 430 kts | 280° |
| 2026-04-27 19:17 | 41.09162 | 4.34978 | 36072 ft | 430 kts | 279° |
| 2026-04-27 19:18 | 41.09994 | 4.27167 | 36069 ft | 431 kts | 279° |
| 2026-04-27 19:18 | 41.10821 | 4.19309 | 36075 ft | 430 kts | 278° |
| 2026-04-27 19:19 | 41.11639 | 4.11477 | 36064 ft | 428 kts | 278° |
| 2026-04-27 19:19 | 41.12450 | 4.03657 | 36076 ft | 430 kts | 278° |
| 2026-04-27 19:20 | 41.13258 | 3.95808 | 36072 ft | 430 kts | 279° |
| 2026-04-27 19:20 | 41.14060 | 3.87980 | 36067 ft | 430 kts | 278° |
| 2026-04-27 19:21 | 41.14858 | 3.80124 | 36069 ft | 430 kts | 278° |
| 2026-04-27 19:21 | 41.15645 | 3.72320 | 36068 ft | 430 kts | 278° |
| 2026-04-27 19:22 | 41.16434 | 3.64465 | 36063 ft | 431 kts | 278° |
| 2026-04-27 19:22 | 41.17215 | 3.56640 | 36066 ft | 429 kts | 278° |
| 2026-04-27 19:23 | 41.17993 | 3.48791 | 36069 ft | 429 kts | 278° |
| 2026-04-27 19:23 | 41.18764 | 3.40954 | 36068 ft | 430 kts | 278° |
| 2026-04-27 19:24 | 41.19530 | 3.33062 | 36070 ft | 431 kts | 277° |
| 2026-04-27 19:24 | 41.20287 | 3.25204 | 36067 ft | 430 kts | 277° |
| 2026-04-27 19:25 | 41.21040 | 3.17335 | 36064 ft | 430 kts | 277° |
| 2026-04-27 19:25 | 41.21787 | 3.09487 | 36066 ft | 430 kts | 277° |
| 2026-04-27 19:26 | 41.22532 | 3.01603 | 36070 ft | 431 kts | 277° |
| 2026-04-27 19:26 | 41.23268 | 2.93760 | 36072 ft | 429 kts | 277° |
| 2026-04-27 19:27 | 41.24002 | 2.85876 | 36069 ft | 429 kts | 277° |
| 2026-04-27 19:27 | 41.24728 | 2.78022 | 36066 ft | 429 kts | 277° |
| 2026-04-27 19:28 | 41.25446 | 2.70199 | 36071 ft | 430 kts | 277° |
| 2026-04-27 19:28 | 41.26161 | 2.62345 | 36059 ft | 428 kts | 277° |
| 2026-04-27 19:29 | 41.26868 | 2.54516 | 36072 ft | 429 kts | 277° |
| 2026-04-27 19:29 | 41.27578 | 2.46600 | 36069 ft | 428 kts | 277° |
| 2026-04-27 19:30 | 41.28273 | 2.38787 | 36069 ft | 428 kts | 277° |
| 2026-04-27 19:30 | 41.28965 | 2.30947 | 36079 ft | 428 kts | 277° |
| 2026-04-27 19:31 | 41.29654 | 2.23084 | 36089 ft | 427 kts | 277° |
| 2026-04-27 19:31 | 41.30392 | 2.15268 | 36083 ft | 427 kts | 279° |
| 2026-04-27 19:32 | 41.31989 | 2.07680 | 36085 ft | 425 kts | 292° |
| 2026-04-27 19:32 | 41.34569 | 2.00594 | 36081 ft | 426 kts | 297° |
| 2026-04-27 19:33 | 41.37389 | 1.93672 | 36083 ft | 426 kts | 298° |
| 2026-04-27 19:33 | 41.40209 | 1.86776 | 36083 ft | 427 kts | 298° |
| 2026-04-27 19:34 | 41.43019 | 1.79805 | 36083 ft | 426 kts | 297° |
| 2026-04-27 19:34 | 41.45786 | 1.72858 | 36088 ft | 425 kts | 297° |
| 2026-04-27 19:35 | 41.48543 | 1.65884 | 36082 ft | 426 kts | 297° |
| 2026-04-27 19:35 | 41.51292 | 1.58896 | 36091 ft | 425 kts | 297° |
| 2026-04-27 19:36 | 41.54023 | 1.51937 | 36090 ft | 424 kts | 297° |
| 2026-04-27 19:36 | 41.56735 | 1.45004 | 36096 ft | 425 kts | 297° |
| 2026-04-27 19:37 | 41.59473 | 1.37990 | 36094 ft | 424 kts | 297° |
| 2026-04-27 19:37 | 41.62179 | 1.31041 | 36106 ft | 424 kts | 296° |
| 2026-04-27 19:38 | 41.64896 | 1.24048 | 36095 ft | 424 kts | 296° |
| 2026-04-27 19:38 | 41.67606 | 1.17054 | 36094 ft | 425 kts | 296° |
| 2026-04-27 19:39 | 41.70330 | 1.10007 | 36090 ft | 425 kts | 296° |
| 2026-04-27 19:39 | 41.73019 | 1.03037 | 36086 ft | 424 kts | 296° |
| 2026-04-27 19:40 | 41.75715 | 0.96028 | 36077 ft | 423 kts | 296° |
| 2026-04-27 19:40 | 41.78413 | 0.88999 | 36083 ft | 424 kts | 296° |
| 2026-04-27 19:41 | 41.81095 | 0.81996 | 36084 ft | 424 kts | 296° |
| 2026-04-27 19:41 | 41.83773 | 0.74987 | 36078 ft | 423 kts | 296° |
| 2026-04-27 19:42 | 41.86446 | 0.67971 | 36003 ft | 426 kts | 296° |
| 2026-04-27 19:42 | 41.87799 | 0.64412 | 35809 ft | 425 kts | 296° |
| 2026-04-27 19:42 | 41.89138 | 0.60887 | 35639 ft | 424 kts | 296° |
| 2026-04-27 19:42 | 41.90467 | 0.57381 | 35451 ft | 424 kts | 296° |
| 2026-04-27 19:43 | 41.91792 | 0.53886 | 35269 ft | 425 kts | 296° |
| 2026-04-27 19:43 | 41.93128 | 0.50353 | 35079 ft | 425 kts | 296° |
| 2026-04-27 19:43 | 41.94464 | 0.46817 | 34876 ft | 425 kts | 296° |
| 2026-04-27 19:43 | 41.95793 | 0.43297 | 34644 ft | 421 kts | 296° |
| 2026-04-27 19:44 | 41.97122 | 0.39772 | 34402 ft | 418 kts | 296° |
| 2026-04-27 19:44 | 41.98428 | 0.36305 | 34134 ft | 419 kts | 296° |
| 2026-04-27 19:44 | 41.99733 | 0.32834 | 34093 ft | 419 kts | 295° |
| 2026-04-27 19:45 | 42.02383 | 0.25775 | 34083 ft | 421 kts | 295° |
| 2026-04-27 19:45 | 42.04989 | 0.18821 | 33809 ft | 418 kts | 295° |
| 2026-04-27 19:45 | 42.06292 | 0.15337 | 33541 ft | 419 kts | 295° |
| 2026-04-27 19:46 | 42.07587 | 0.11867 | 33263 ft | 418 kts | 295° |
| 2026-04-27 19:46 | 42.08900 | 0.08348 | 33092 ft | 416 kts | 295° |
| 2026-04-27 19:46 | 42.10182 | 0.04906 | 33100 ft | 417 kts | 295° |
| 2026-04-27 19:47 | 42.12799 | -0.02136 | 33110 ft | 420 kts | 295° |
| 2026-04-27 19:47 | 42.15233 | -0.08697 | 33104 ft | 419 kts | 295° |
| 2026-04-27 19:48 | 42.17694 | -0.15347 | 33107 ft | 421 kts | 295° |
| 2026-04-27 19:48 | 42.19915 | -0.21364 | 33108 ft | 420 kts | 295° |
| 2026-04-27 19:49 | 42.22513 | -0.28417 | 33109 ft | 420 kts | 295° |
| 2026-04-27 19:49 | 42.25099 | -0.35455 | 33110 ft | 420 kts | 295° |
| 2026-04-27 19:50 | 42.27692 | -0.42532 | 33109 ft | 419 kts | 295° |
| 2026-04-27 19:50 | 42.30263 | -0.49563 | 33103 ft | 419 kts | 295° |
| 2026-04-27 19:51 | 42.32844 | -0.56640 | 33099 ft | 419 kts | 295° |
| 2026-04-27 19:51 | 42.35410 | -0.63694 | 33110 ft | 420 kts | 295° |
| 2026-04-27 19:52 | 42.37979 | -0.70769 | 33106 ft | 419 kts | 294° |
| 2026-04-27 19:52 | 42.40527 | -0.77804 | 33100 ft | 419 kts | 294° |
| 2026-04-27 19:53 | 42.44378 | -0.88476 | 33102 ft | 419 kts | 294° |
| 2026-04-27 19:53 | 42.46917 | -0.95538 | 33101 ft | 419 kts | 294° |
| 2026-04-27 19:54 | 42.49472 | -1.02662 | 33106 ft | 420 kts | 294° |
| 2026-04-27 19:54 | 42.52014 | -1.09765 | 33104 ft | 419 kts | 294° |
| 2026-04-27 19:55 | 42.54553 | -1.16877 | 33105 ft | 420 kts | 294° |
| 2026-04-27 19:55 | 42.57075 | -1.23953 | 33096 ft | 418 kts | 294° |
| 2026-04-27 19:56 | 42.59602 | -1.31063 | 33103 ft | 418 kts | 294° |
| 2026-04-27 19:56 | 42.60858 | -1.34602 | 32949 ft | 411 kts | 294° |
| 2026-04-27 19:56 | 42.62080 | -1.38050 | 32625 ft | 403 kts | 294° |
| 2026-04-27 19:57 | 42.63269 | -1.41405 | 32213 ft | 399 kts | 294° |
| 2026-04-27 19:57 | 42.64482 | -1.44831 | 31750 ft | 403 kts | 294° |
| 2026-04-27 19:57 | 42.65702 | -1.48291 | 31270 ft | 408 kts | 294° |
| 2026-04-27 19:57 | 42.66921 | -1.51745 | 30787 ft | 405 kts | 294° |
| 2026-04-27 19:58 | 42.68135 | -1.55188 | 30307 ft | 401 kts | 294° |
| 2026-04-27 19:58 | 42.69334 | -1.58588 | 29834 ft | 397 kts | 294° |
| 2026-04-27 19:58 | 42.70523 | -1.61968 | 29356 ft | 393 kts | 294° |
| 2026-04-27 19:58 | 42.71648 | -1.65176 | 28914 ft | 389 kts | 293° |
| 2026-04-27 19:59 | 42.72814 | -1.68503 | 28447 ft | 387 kts | 293° |
| 2026-04-27 19:59 | 42.74046 | -1.71738 | 27981 ft | 392 kts | 297° |
| 2026-04-27 19:59 | 42.75443 | -1.74921 | 27507 ft | 392 kts | 299° |
| 2026-04-27 19:59 | 42.76902 | -1.78023 | 27031 ft | 389 kts | 300° |
| 2026-04-27 20:00 | 42.78381 | -1.81090 | 26563 ft | 385 kts | 300° |
| 2026-04-27 20:00 | 42.79841 | -1.84112 | 26095 ft | 382 kts | 301° |
| 2026-04-27 20:00 | 42.81279 | -1.87103 | 25629 ft | 379 kts | 300° |
| 2026-04-27 20:00 | 42.82714 | -1.90112 | 25162 ft | 377 kts | 300° |
| 2026-04-27 20:01 | 42.84117 | -1.93077 | 24701 ft | 374 kts | 300° |
| 2026-04-27 20:01 | 42.85521 | -1.96056 | 24237 ft | 371 kts | 300° |
| 2026-04-27 20:01 | 42.86902 | -1.98992 | 23777 ft | 369 kts | 300° |
| 2026-04-27 20:01 | 42.88279 | -2.01924 | 23321 ft | 366 kts | 300° |
| 2026-04-27 20:02 | 42.89640 | -2.04830 | 22870 ft | 364 kts | 300° |
| 2026-04-27 20:02 | 42.90998 | -2.07735 | 22415 ft | 362 kts | 300° |
| 2026-04-27 20:02 | 42.92345 | -2.10622 | 21945 ft | 360 kts | 300° |
| 2026-04-27 20:02 | 42.93691 | -2.13508 | 21494 ft | 357 kts | 300° |
| 2026-04-27 20:03 | 42.95001 | -2.16323 | 21046 ft | 355 kts | 300° |
| 2026-04-27 20:03 | 42.96332 | -2.19186 | 20564 ft | 354 kts | 300° |
| 2026-04-27 20:03 | 42.97636 | -2.21995 | 20117 ft | 351 kts | 300° |
| 2026-04-27 20:03 | 42.98944 | -2.24811 | 19661 ft | 350 kts | 300° |
| 2026-04-27 20:04 | 43.00250 | -2.27603 | 19215 ft | 348 kts | 301° |
| 2026-04-27 20:04 | 43.01548 | -2.30368 | 18753 ft | 346 kts | 301° |
| 2026-04-27 20:04 | 43.02837 | -2.33109 | 18307 ft | 344 kts | 300° |
| 2026-04-27 20:04 | 43.04129 | -2.35860 | 17855 ft | 342 kts | 300° |
| 2026-04-27 20:05 | 43.05415 | -2.38604 | 17400 ft | 340 kts | 301° |
| 2026-04-27 20:05 | 43.06676 | -2.41296 | 16950 ft | 339 kts | 301° |
| 2026-04-27 20:05 | 43.07964 | -2.44047 | 16502 ft | 337 kts | 301° |
| 2026-04-27 20:05 | 43.09221 | -2.46737 | 16053 ft | 335 kts | 301° |
| 2026-04-27 20:06 | 43.10466 | -2.49402 | 15613 ft | 334 kts | 301° |
| 2026-04-27 20:06 | 43.11702 | -2.52054 | 15177 ft | 332 kts | 301° |
| 2026-04-27 20:06 | 43.12679 | -2.54148 | 14823 ft | 331 kts | 301° |
| 2026-04-27 20:06 | 43.13910 | -2.56790 | 14380 ft | 329 kts | 301° |
| 2026-04-27 20:07 | 43.15135 | -2.59426 | 13948 ft | 327 kts | 301° |
| 2026-04-27 20:07 | 43.16345 | -2.62031 | 13513 ft | 325 kts | 301° |
| 2026-04-27 20:07 | 43.17561 | -2.64650 | 13087 ft | 323 kts | 301° |
| 2026-04-27 20:07 | 43.18740 | -2.67195 | 12670 ft | 321 kts | 300° |
| 2026-04-27 20:08 | 43.19935 | -2.69774 | 12247 ft | 319 kts | 301° |
| 2026-04-27 20:08 | 43.21131 | -2.72356 | 11823 ft | 318 kts | 301° |
| 2026-04-27 20:08 | 43.22308 | -2.74901 | 11405 ft | 317 kts | 301° |
| 2026-04-27 20:08 | 43.23483 | -2.77441 | 10994 ft | 315 kts | 301° |
| 2026-04-27 20:09 | 43.24651 | -2.79969 | 10581 ft | 314 kts | 301° |
| 2026-04-27 20:09 | 43.25811 | -2.82484 | 10296 ft | 308 kts | 301° |
| 2026-04-27 20:09 | 43.26937 | -2.84923 | 10163 ft | 297 kts | 301° |
| 2026-04-27 20:09 | 43.28033 | -2.87299 | 9945 ft | 291 kts | 301° |
| 2026-04-27 20:10 | 43.29096 | -2.89607 | 9853 ft | 280 kts | 301° |
| 2026-04-27 20:10 | 43.30126 | -2.91833 | 9779 ft | 268 kts | 303° |
| 2026-04-27 20:10 | 43.31224 | -2.93807 | 9774 ft | 255 kts | 310° |
| 2026-04-27 20:10 | 43.32411 | -2.95606 | 9565 ft | 254 kts | 312° |
| 2026-04-27 20:11 | 43.33625 | -2.97368 | 9191 ft | 257 kts | 313° |
| 2026-04-27 20:11 | 43.34860 | -2.99169 | 8850 ft | 258 kts | 313° |
| 2026-04-27 20:11 | 43.36084 | -3.00982 | 8507 ft | 259 kts | 313° |
| 2026-04-27 20:11 | 43.37315 | -3.02821 | 8160 ft | 260 kts | 313° |
| 2026-04-27 20:12 | 43.38533 | -3.04647 | 7825 ft | 261 kts | 313° |
| 2026-04-27 20:12 | 43.39762 | -3.06487 | 7481 ft | 262 kts | 313° |
| 2026-04-27 20:12 | 43.41000 | -3.08340 | 7133 ft | 263 kts | 313° |
| 2026-04-27 20:12 | 43.42241 | -3.10197 | 6817 ft | 263 kts | 313° |
| 2026-04-27 20:13 | 43.43463 | -3.12023 | 6621 ft | 258 kts | 313° |
| 2026-04-27 20:13 | 43.44659 | -3.13813 | 6417 ft | 253 kts | 314° |
| 2026-04-27 20:13 | 43.45821 | -3.15636 | 6155 ft | 251 kts | 304° |
| 2026-04-27 20:13 | 43.46379 | -3.17887 | 5855 ft | 251 kts | 269° |
| 2026-04-27 20:14 | 43.46000 | -3.20147 | 5585 ft | 246 kts | 241° |
| 2026-04-27 20:14 | 43.44975 | -3.21989 | 5282 ft | 238 kts | 222° |
| 2026-04-27 20:14 | 43.43662 | -3.23295 | 4983 ft | 231 kts | 202° |
| 2026-04-27 20:14 | 43.42132 | -3.23666 | 4764 ft | 218 kts | 172° |
| 2026-04-27 20:15 | 43.40700 | -3.23116 | 4604 ft | 206 kts | 153° |
| 2026-04-27 20:15 | 43.39518 | -3.22139 | 4437 ft | 195 kts | 137° |
| 2026-04-27 20:15 | 43.38728 | -3.20698 | 4281 ft | 182 kts | 112° |
| 2026-04-27 20:15 | 43.38356 | -3.19088 | 4121 ft | 176 kts | 99° |
| 2026-04-27 20:16 | 43.38440 | -3.17442 | 3940 ft | 173 kts | 75° |
| 2026-04-27 20:16 | 43.38650 | -3.15810 | 3767 ft | 172 kts | 88° |
| 2026-04-27 20:16 | 43.38461 | -3.14205 | 3658 ft | 172 kts | 108° |
| 2026-04-27 20:16 | 43.37996 | -3.12690 | 3562 ft | 167 kts | 112° |
| 2026-04-27 20:17 | 43.37494 | -3.11231 | 3231 ft | 166 kts | 114° |
| 2026-04-27 20:17 | 43.36998 | -3.09854 | 3016 ft | 162 kts | 114° |
| 2026-04-27 20:17 | 43.36514 | -3.08528 | 2818 ft | 150 kts | 114° |
| 2026-04-27 20:17 | 43.36051 | -3.07258 | 2569 ft | 145 kts | 114° |
| 2026-04-27 20:18 | 43.35602 | -3.06027 | 2389 ft | 145 kts | 114° |
| 2026-04-27 20:18 | 43.35148 | -3.04785 | 2175 ft | 145 kts | 113° |
| 2026-04-27 20:18 | 43.34687 | -3.03528 | 1973 ft | 146 kts | 114° |
| 2026-04-27 20:18 | 43.34233 | -3.02289 | 1760 ft | 144 kts | 113° |
| 2026-04-27 20:19 | 43.33783 | -3.01057 | 1561 ft | 145 kts | 114° |
| 2026-04-27 20:19 | 43.33328 | -2.99817 | 1362 ft | 144 kts | 114° |
| 2026-04-27 20:19 | 43.32872 | -2.98579 | 1134 ft | 149 kts | 114° |
| 2026-04-27 20:19 | 43.32396 | -2.97345 | 980 ft | 144 kts | 116° |
| 2026-04-27 20:20 | 43.31929 | -2.96115 | 763 ft | 146 kts | 112° |
| 2026-04-27 20:20 | 43.31495 | -2.94861 | 549 ft | 144 kts | 115° |
| 2026-04-27 20:20 | 43.31056 | -2.93662 | 347 ft | 140 kts | 114° |
| 2026-04-27 20:20 | 43.30619 | -2.92452 | 176 ft | 141 kts | 115° |
| 2026-04-27 20:21 | 43.30205 | -2.91315 | 146 ft | 105 kts | 117° |
| 2026-04-27 20:21 | 43.29991 | -2.90728 | 148 ft | 41 kts | 115° |
| 2026-04-27 20:21 | 43.29929 | -2.90463 | 146 ft | 26 kts | 95° |
| 2026-04-27 20:21 | 43.29932 | -2.90272 | 144 ft | 7 kts | 78° |
| 2026-04-27 20:22 | 43.29958 | -2.90222 | 144 ft | 6 kts | 21° |
| 2026-04-27 20:22 | 43.29993 | -2.90241 | 146 ft | 7 kts | 306° |
| 2026-04-27 20:22 | 43.30019 | -2.90303 | 147 ft | 6 kts | 296° |
| 2026-04-27 20:22 | 43.30034 | -2.90348 | 148 ft | 7 kts | 294° |
| 2026-04-27 20:23 | 43.30053 | -2.90404 | 149 ft | 5 kts | 295° |
| 2026-04-27 20:23 | 43.30069 | -2.90447 | 150 ft | 7 kts | 296° |
| 2026-04-27 20:23 | 43.30105 | -2.90548 | 151 ft | 12 kts | 299° |
| 2026-04-27 20:23 | 43.30173 | -2.90563 | 152 ft | 10 kts | 25° |
| 2026-04-27 20:24 | 43.30232 | -2.90531 | 154 ft | 7 kts | 358° |
| 2026-04-27 20:24 | 43.30284 | -2.90564 | 156 ft | 8 kts | 327° |
| 2026-04-27 20:24 | 43.30337 | -2.90617 | 158 ft | 8 kts | 310° |
| 2026-04-27 20:24 | 43.30369 | -2.90695 | 158 ft | 11 kts | 297° |
| 2026-04-27 20:25 | 43.30397 | -2.90772 | 159 ft | 2 kts | 307° |
| 2026-04-27 20:25 | 43.30416 | -2.90772 | 159 ft | 4 kts | 14° |
| 2026-04-27 20:25 | 43.30430 | -2.90765 | 160 ft | 0 kts | 25° |
| 2026-04-27 20:25 | 43.30448 | -2.90752 | 161 ft | 7 kts | 26° |
| 2026-04-27 20:26 | 43.30466 | -2.90740 | 161 ft | 0 kts | 25° |